Time;durP1;ratioP1;P1;durP2;ratioP2;P2;SDS_P1;SDS_P2;PMS_P1;PMS_P2;Temp;Humidity;BMP_temperature;BMP_pressure;BME280_temperature;BME280_humidity;BME280_pressure;Samples;Min_cycle;Max_cycle;Signal;HPM_P1;HPM_P2
2023/03/11 00:02:14;;;;;;;5.38;1.77;;;1.20;99.90;;;;;;5108843;27;20051;-80
2023/03/11 00:04:40;;;;;;;3.20;0.70;;;1.20;99.90;;;;;;5110427;27;20490;-81
2023/03/11 00:07:08;;;;;;;4.20;1.35;;;2.30;99.90;;;;;;5092783;27;20054;-81
2023/03/11 00:09:34;;;;;;;5.30;1.15;;;1.20;99.90;;;;;;5109577;27;20521;-80
2023/03/11 00:12:01;;;;;;;4.85;0.50;;;2.50;99.90;;;;;;5109932;27;20039;-81
2023/03/11 00:14:26;;;;;;;2.78;1.05;;;1.20;99.90;;;;;;5108149;27;20074;-81
2023/03/11 00:16:52;;;;;;;6.25;0.82;;;2.80;99.90;;;;;;5110672;27;20489;-80
2023/03/11 00:19:18;;;;;;;5.47;0.70;;;1.10;99.90;;;;;;5058522;27;20043;-80
2023/03/11 00:21:43;;;;;;;7.88;0.77;;;2.40;99.90;;;;;;5093291;27;20504;-80
2023/03/11 00:24:09;;;;;;;8.68;1.67;;;1.10;99.90;;;;;;5109141;27;20078;-80
2023/03/11 00:26:35;;;;;;;4.57;0.70;;;2.40;99.90;;;;;;5092774;27;20050;-81
2023/03/11 00:29:00;;;;;;;3.45;0.70;;;1.10;99.90;;;;;;5076408;27;20050;-81
2023/03/11 00:31:27;;;;;;;2.78;0.45;;;1.10;99.90;;;;;;5108471;27;20047;-80
2023/03/11 00:33:53;;;;;;;3.80;0.50;;;2.40;99.90;;;;;;5110432;27;20494;-80
2023/03/11 00:36:30;;;;;;;7.25;0.52;;;2.60;99.90;;;;;;5091307;27;20108;-80
2023/03/11 00:38:56;;;;;;;9.82;2.00;;;2.10;99.90;;;;;;5092674;27;20143;-80
2023/03/11 00:41:22;;;;;;;9.88;0.68;;;1.10;99.90;;;;;;5091819;27;20627;-80
2023/03/11 00:43:48;;;;;;;4.78;1.45;;;1.10;99.90;;;;;;5075064;27;20130;-80
2023/03/11 00:46:14;;;;;;;4.15;0.43;;;2.40;99.90;;;;;;5092501;27;20422;-79
2023/03/11 00:48:39;;;;;;;5.15;0.47;;;2.70;99.90;;;;;;5074472;27;20039;-80
2023/03/11 00:51:14;;;;;;;4.80;0.70;;;1.10;99.90;;;;;;5076069;27;20151;-77
2023/03/11 00:53:40;;;;;;;6.85;0.50;;;1.10;99.90;;;;;;5091145;27;20047;-77
2023/03/11 00:56:14;;;;;;;2.63;0.47;;;2.50;99.90;;;;;;5092514;27;20054;-78
2023/03/11 00:58:42;;;;;;;10.23;0.65;;;1.70;99.90;;;;;;5108577;27;20085;-79
2023/03/11 01:01:17;;;;;;;1.45;0.40;;;1.10;99.90;;;;;;5108441;27;20079;-78
2023/03/11 01:03:43;;;;;;;4.63;0.75;;;1.00;99.90;;;;;;5091630;27;20055;-78
2023/03/11 01:06:09;;;;;;;3.63;0.47;;;1.10;99.90;;;;;;5106456;27;20501;-78
2023/03/11 01:08:35;;;;;;;1.90;0.50;;;1.10;99.90;;;;;;5108365;27;20243;-79
2023/03/11 01:11:02;;;;;;;3.63;0.63;;;1.10;99.90;;;;;;5089893;27;20043;-79
2023/03/11 01:13:29;;;;;;;8.70;0.80;;;1.10;99.90;;;;;;5090333;27;20039;-79
2023/03/11 01:15:55;;;;;;;5.68;0.47;;;1.30;99.90;;;;;;5090469;27;20130;-79
2023/03/11 01:18:21;;;;;;;2.97;0.40;;;1.10;99.90;;;;;;5090128;27;20043;-79
2023/03/11 01:20:48;;;;;;;6.30;0.40;;;1.10;99.90;;;;;;5090715;27;20494;-79
2023/03/11 01:23:15;;;;;;;3.58;0.60;;;1.10;99.90;;;;;;5072597;27;20049;-79
2023/03/11 01:25:40;;;;;;;2.67;0.63;;;1.10;99.90;;;;;;5107312;27;20035;-79
2023/03/11 01:28:07;;;;;;;4.18;0.63;;;1.80;99.90;;;;;;5089860;27;20039;-79
2023/03/11 01:30:35;;;;;;;5.47;0.68;;;1.10;99.90;;;;;;5090483;27;20748;-79
2023/03/11 01:33:02;;;;;;;7.95;0.90;;;1.10;99.90;;;;;;5107208;28;20039;-79
2023/03/11 01:35:30;;;;;;;2.72;0.30;;;1.10;99.90;;;;;;5089665;27;20039;-78
2023/03/11 01:37:56;;;;;;;5.97;0.40;;;1.00;99.90;;;;;;5090362;27;20604;-79
2023/03/11 01:40:34;;;;;;;8.25;0.73;;;1.10;99.90;;;;;;5072353;27;20074;-79
2023/03/11 01:43:02;;;;;;;6.95;1.17;;;1.20;99.90;;;;;;5107988;28;20043;-79
2023/03/11 01:45:28;;;;;;;10.35;0.98;;;1.20;99.90;;;;;;5107138;27;20039;-79
2023/03/11 01:47:54;;;;;;;1.23;0.35;;;1.00;99.90;;;;;;5090407;28;20111;-79
2023/03/11 01:50:21;;;;;;;1.67;0.38;;;1.00;99.90;;;;;;5107000;28;20043;-78
2023/03/11 01:52:47;;;;;;;3.17;0.63;;;2.30;99.90;;;;;;5089863;28;20054;-78
2023/03/11 01:55:15;;;;;;;3.90;0.50;;;0.80;99.90;;;;;;5107520;28;20410;-78
2023/03/11 01:57:43;;;;;;;3.55;0.35;;;1.10;99.90;;;;;;5106072;28;20509;-78
2023/03/11 02:00:14;;;;;;;0.73;0.22;;;0.80;99.90;;;;;;5107553;28;20484;-78
2023/03/11 02:03:05;;;;;;;4.45;0.70;;;0.70;99.90;;;;;;5102991;28;20052;-78
2023/03/11 02:05:32;;;;;;;0.57;0.20;;;0.70;99.90;;;;;;5086303;28;20047;-78
2023/03/11 02:07:59;;;;;;;3.58;0.45;;;1.50;99.90;;;;;;5087311;28;20047;-78
2023/03/11 02:10:25;;;;;;;3.53;0.68;;;0.70;99.90;;;;;;5068711;28;20035;-79
2023/03/11 02:12:51;;;;;;;3.30;0.45;;;0.60;99.90;;;;;;5086864;28;20039;-79
2023/03/11 02:15:17;;;;;;;3.75;0.30;;;0.60;99.90;;;;;;5086068;28;20051;-79
2023/03/11 02:17:43;;;;;;;4.97;0.50;;;0.60;99.90;;;;;;5086116;28;20418;-79
2023/03/11 02:20:31;;;;;;;1.30;0.38;;;0.60;99.90;;;;;;5086346;28;20177;-78
2023/03/11 02:22:58;;;;;;;0.75;0.32;;;0.60;99.90;;;;;;5102314;28;20130;-78
2023/03/11 02:25:56;;;;;;;2.85;0.50;;;0.60;99.90;;;;;;5087536;28;20160;-78
2023/03/11 02:28:24;;;;;;;3.22;0.55;;;0.70;99.90;;;;;;5097881;28;20066;-78
2023/03/11 02:30:52;;;;;;;1.05;0.38;;;1.30;99.90;;;;;;5069844;28;20380;-78
2023/03/11 02:33:18;;;;;;;4.25;0.60;;;0.70;99.90;;;;;;5104336;28;20048;-79
2023/03/11 02:35:43;;;;;;;4.22;0.30;;;0.70;99.90;;;;;;5102459;28;20115;-78
2023/03/11 02:38:09;;;;;;;4.82;0.65;;;0.70;99.90;;;;;;5073926;28;20409;-78
2023/03/11 02:40:49;;;;;;;3.10;0.35;;;1.90;99.90;;;;;;5105995;28;20051;-78
2023/03/11 02:43:18;;;;;;;2.95;0.40;;;0.60;99.90;;;;;;5107476;28;20047;-78
2023/03/11 02:45:45;;;;;;;2.72;0.30;;;0.50;99.90;;;;;;5106850;28;20080;-78
2023/03/11 02:48:12;;;;;;;1.90;0.43;;;0.60;99.90;;;;;;5106353;28;20050;-79
2023/03/11 02:50:40;;;;;;;3.15;0.38;;;0.40;99.90;;;;;;5090627;28;20204;-78
2023/03/11 02:53:06;;;;;;;1.88;0.50;;;0.40;99.90;;;;;;5106116;28;20139;-79
2023/03/11 02:55:32;;;;;;;6.20;0.68;;;0.40;99.90;;;;;;5107148;28;20040;-78
2023/03/11 02:57:57;;;;;;;4.00;0.30;;;0.30;99.90;;;;;;5089120;28;20039;-78
2023/03/11 03:00:23;;;;;;;3.78;0.82;;;1.00;99.90;;;;;;5090567;27;20035;-79
2023/03/11 03:02:51;;;;;;;1.77;0.50;;;0.20;99.90;;;;;;5092888;27;20509;-78
2023/03/11 03:05:19;;;;;;;1.77;0.30;;;0.20;99.90;;;;;;5092268;27;20073;-78
2023/03/11 03:07:49;;;;;;;2.55;0.57;;;0.10;99.90;;;;;;5110238;27;20043;-78
2023/03/11 03:10:16;;;;;;;3.60;0.30;;;0.10;99.90;;;;;;5091776;27;20039;-78
2023/03/11 03:12:42;;;;;;;1.58;0.40;;;0.00;99.90;;;;;;5093469;27;20484;-78
2023/03/11 03:15:10;;;;;;;4.25;0.80;;;0.00;99.90;;;;;;5109157;27;20072;-78
2023/03/11 03:17:36;;;;;;;2.25;0.40;;;0.00;99.90;;;;;;5127984;27;20104;-77
2023/03/11 03:20:05;;;;;;;3.95;0.47;;;0.30;99.90;;;;;;5109625;27;20075;-79
2023/03/11 03:22:30;;;;;;;2.75;0.68;;;-0.10;99.90;;;;;;5109206;27;20092;-79
2023/03/11 03:24:56;;;;;;;1.65;0.35;;;-0.20;99.90;;;;;;5110076;27;20402;-79
2023/03/11 03:27:22;;;;;;;2.78;1.05;;;-0.20;99.90;;;;;;5108647;27;20046;-79
2023/03/11 03:29:47;;;;;;;4.72;0.38;;;-0.20;99.90;;;;;;5093214;27;20043;-76
2023/03/11 03:32:13;;;;;;;5.60;0.50;;;0.00;99.90;;;;;;5109127;27;20544;-76
2023/03/11 03:34:39;;;;;;;3.47;0.32;;;-0.30;99.90;;;;;;5109583;27;20043;-76
2023/03/11 03:37:04;;;;;;;5.20;1.05;;;-0.40;99.90;;;;;;5108973;27;20398;-76
2023/03/11 03:39:31;;;;;;;5.88;0.63;;;-0.50;99.90;;;;;;5074822;27;20070;-76
2023/03/11 03:41:57;;;;;;;5.80;0.85;;;-0.50;99.90;;;;;;5109408;27;20051;-76
2023/03/11 03:44:23;;;;;;;2.20;0.90;;;-0.60;99.90;;;;;;5091149;27;20138;-76
2023/03/11 03:46:48;;;;;;;1.65;0.43;;;-0.60;99.90;;;;;;5109700;27;20123;-76
2023/03/11 03:49:14;;;;;;;4.68;1.08;;;-0.60;99.90;;;;;;5126953;27;20105;-76
2023/03/11 03:51:40;;;;;;;0.68;0.30;;;-0.70;99.90;;;;;;5075193;27;20108;-76
2023/03/11 03:54:05;;;;;;;2.90;0.30;;;-0.70;99.90;;;;;;5074859;27;20061;-76
2023/03/11 03:56:31;;;;;;;2.72;0.93;;;-0.70;99.90;;;;;;5091537;27;20333;-79
2023/03/11 03:58:57;;;;;;;1.05;0.38;;;-0.80;99.90;;;;;;5109135;27;20050;-76
2023/03/11 04:01:22;;;;;;;4.43;0.55;;;-0.80;99.90;;;;;;5090568;27;20104;-76
2023/03/11 04:03:48;;;;;;;4.97;0.60;;;-0.80;99.90;;;;;;5092504;27;20043;-77
2023/03/11 04:06:17;;;;;;;3.95;0.63;;;-0.80;99.90;;;;;;5107831;27;20054;-77
2023/03/11 04:08:43;;;;;;;2.03;0.57;;;-0.80;99.90;;;;;;5108797;27;20463;-77
2023/03/11 04:11:09;;;;;;;5.20;0.73;;;0.70;99.90;;;;;;5108782;27;20050;-76
2023/03/11 04:13:34;;;;;;;3.42;0.47;;;-0.90;99.90;;;;;;5108697;27;20095;-77
2023/03/11 04:16:03;;;;;;;15.65;1.13;;;0.60;99.90;;;;;;5108754;27;20371;-77
2023/03/11 04:18:29;;;;;;;2.30;0.52;;;-0.90;99.90;;;;;;5107103;27;20049;-77
2023/03/11 04:20:55;;;;;;;6.15;0.95;;;-0.40;99.90;;;;;;5109042;27;20062;-77
2023/03/11 04:23:21;;;;;;;1.35;0.50;;;-1.00;99.90;;;;;;5090992;27;20104;-77
2023/03/11 04:25:46;;;;;;;2.05;0.50;;;-1.00;99.90;;;;;;5108815;27;20618;-77
2023/03/11 04:28:12;;;;;;;4.03;0.82;;;-0.90;99.90;;;;;;5108173;27;20043;-77
2023/03/11 04:30:40;;;;;;;3.38;0.35;;;-1.10;99.90;;;;;;5090797;27;20047;-77
2023/03/11 04:33:05;;;;;;;5.53;0.90;;;-1.10;99.90;;;;;;5127152;27;20043;-77
2023/03/11 04:35:31;;;;;;;1.75;0.57;;;-1.10;99.90;;;;;;5107443;27;20115;-77
2023/03/11 04:37:58;;;;;;;2.97;0.52;;;-1.10;99.90;;;;;;5109049;27;20042;-77
2023/03/11 04:40:24;;;;;;;5.50;0.50;;;-1.10;99.90;;;;;;5090069;27;20039;-77
2023/03/11 04:42:49;;;;;;;8.38;0.70;;;-0.40;99.90;;;;;;5108206;27;20096;-78
2023/03/11 04:45:17;;;;;;;1.95;0.50;;;-1.10;99.90;;;;;;5091081;27;20047;-78
2023/03/11 04:47:46;;;;;;;1.15;0.40;;;-1.10;99.90;;;;;;5091377;27;20412;-78
2023/03/11 04:50:11;;;;;;;5.63;0.50;;;0.30;99.90;;;;;;5108579;27;20043;-78
2023/03/11 04:52:37;;;;;;;3.45;0.70;;;-1.20;99.90;;;;;;5107495;27;20531;-78
2023/03/11 04:55:03;;;;;;;3.55;1.25;;;-1.20;99.90;;;;;;5108785;27;20043;-78
2023/03/11 04:57:29;;;;;;;0.98;0.50;;;-1.20;99.90;;;;;;5089691;27;20433;-79
2023/03/11 04:59:54;;;;;;;3.50;0.88;;;-1.30;99.90;;;;;;5107687;27;20134;-78
2023/03/11 05:02:20;;;;;;;3.60;0.70;;;0.10;99.90;;;;;;5106177;27;20050;-79
2023/03/11 05:04:46;;;;;;;5.13;0.60;;;-1.30;99.90;;;;;;5107205;27;20046;-78
2023/03/11 05:07:11;;;;;;;4.72;0.47;;;-1.30;99.90;;;;;;5090460;27;20043;-77
2023/03/11 05:09:37;;;;;;;1.88;0.30;;;-1.30;99.90;;;;;;5072942;27;20050;-78
2023/03/11 05:12:04;;;;;;;1.90;0.45;;;0.20;99.90;;;;;;5126714;27;20047;-78
2023/03/11 05:14:29;;;;;;;4.30;0.70;;;-1.30;99.90;;;;;;5106594;27;20059;-77
2023/03/11 05:16:55;;;;;;;4.25;0.70;;;-1.30;99.90;;;;;;5090714;28;20486;-77
2023/03/11 05:19:30;;;;;;;4.55;0.63;;;-1.30;99.90;;;;;;5090442;27;20047;-78
2023/03/11 05:21:56;;;;;;;7.60;0.98;;;-0.80;99.90;;;;;;5091388;27;20082;-77
2023/03/11 05:24:24;;;;;;;7.32;0.60;;;-1.30;99.90;;;;;;5091315;27;20050;-77
2023/03/11 05:26:50;;;;;;;6.38;1.00;;;0.10;99.90;;;;;;5073563;28;20371;-76
2023/03/11 05:29:15;;;;;;;5.40;0.40;;;-0.20;99.90;;;;;;5073829;27;20045;-78
2023/03/11 05:31:41;;;;;;;2.83;0.40;;;-1.40;99.90;;;;;;5105995;27;20103;-78
2023/03/11 05:34:07;;;;;;;3.78;0.52;;;-0.80;99.90;;;;;;5090346;28;20047;-77
2023/03/11 05:36:32;;;;;;;5.35;0.55;;;-1.40;99.90;;;;;;5106477;28;20057;-78
2023/03/11 05:38:58;;;;;;;8.93;0.68;;;-1.40;99.90;;;;;;5090191;28;20090;-78
2023/03/11 05:41:24;;;;;;;2.28;0.73;;;-0.10;99.90;;;;;;5073261;27;20051;-78
2023/03/11 05:43:49;;;;;;;5.03;0.80;;;-1.50;99.90;;;;;;5089729;28;20040;-78
2023/03/11 05:46:15;;;;;;;1.55;0.45;;;-1.50;99.90;;;;;;5091039;27;20401;-78
2023/03/11 05:48:41;;;;;;;3.83;0.68;;;-1.50;99.90;;;;;;5106059;28;20555;-80
2023/03/11 05:51:08;;;;;;;2.55;0.50;;;-1.50;99.90;;;;;;5090234;28;20092;-81
2023/03/11 05:53:34;;;;;;;2.75;0.75;;;-2.20;99.90;;;;;;5089189;28;20093;-77
2023/03/11 05:56:00;;;;;;;7.57;0.95;;;-1.50;99.90;;;;;;5124911;28;20062;-78
2023/03/11 05:58:30;;;;;;;5.22;0.70;;;-1.50;99.90;;;;;;5106723;28;20080;-78
2023/03/11 06:00:58;;;;;;;3.60;0.50;;;-1.60;99.90;;;;;;5089610;28;20499;-78
2023/03/11 06:03:26;;;;;;;6.28;1.50;;;-1.60;99.90;;;;;;5107025;28;20104;-78
2023/03/11 06:05:52;;;;;;;3.90;0.82;;;-0.50;99.90;;;;;;5089213;28;20250;-77
2023/03/11 06:08:19;;;;;;;2.70;0.50;;;-1.60;99.90;;;;;;5090082;28;20137;-78
2023/03/11 06:10:45;;;;;;;3.60;0.80;;;-0.40;99.90;;;;;;5089637;27;20054;-77
2023/03/11 06:13:11;;;;;;;7.60;0.80;;;-1.60;99.90;;;;;;5111002;27;20035;-78
2023/03/11 06:15:37;;;;;;;3.30;0.80;;;-1.60;99.90;;;;;;5111078;27;20047;-78
2023/03/11 06:18:04;;;;;;;8.30;0.85;;;-1.60;99.90;;;;;;5110440;27;20039;-78
2023/03/11 06:20:30;;;;;;;3.20;0.60;;;-1.60;99.90;;;;;;5094093;27;20049;-77
2023/03/11 06:22:55;;;;;;;9.00;0.77;;;-1.60;99.90;;;;;;5109445;27;20061;-78
2023/03/11 06:25:22;;;;;;;8.15;1.63;;;-1.60;99.90;;;;;;5094328;27;20038;-77
2023/03/11 06:27:52;;;;;;;6.65;0.75;;;-1.00;99.90;;;;;;5092934;27;20047;-77
2023/03/11 06:30:19;;;;;;;2.05;0.50;;;-1.60;99.90;;;;;;5077061;27;20039;-77
2023/03/11 06:32:46;;;;;;;9.27;0.93;;;-1.60;99.90;;;;;;5110614;27;20050;-78
2023/03/11 06:35:12;;;;;;;3.53;0.73;;;-1.60;99.90;;;;;;5109837;27;20083;-77
2023/03/11 06:37:38;;;;;;;6.97;0.55;;;-1.60;99.90;;;;;;5094092;27;20043;-77
2023/03/11 06:40:06;;;;;;;4.13;0.50;;;-1.60;99.90;;;;;;5109905;27;20057;-77
2023/03/11 06:42:32;;;;;;;3.08;0.60;;;-1.60;99.90;;;;;;5111330;27;20044;-78
2023/03/11 06:44:58;;;;;;;6.13;0.55;;;-1.60;99.90;;;;;;5093420;27;20109;-78
2023/03/11 06:47:24;;;;;;;7.80;1.30;;;-1.60;99.90;;;;;;5093103;27;20089;-79
2023/03/11 06:49:53;;;;;;;5.18;0.80;;;-1.60;99.90;;;;;;5093739;27;20039;-78
2023/03/11 06:52:19;;;;;;;29.63;1.33;;;-0.70;99.90;;;;;;5092374;27;20039;-79
2023/03/11 06:54:45;;;;;;;4.20;1.00;;;-1.50;99.90;;;;;;5110731;27;20046;-79
2023/03/11 06:57:11;;;;;;;6.40;0.73;;;-1.40;99.90;;;;;;5109142;27;20043;-80
2023/03/11 06:59:36;;;;;;;5.57;0.88;;;-1.40;99.90;;;;;;5110843;27;20043;-79
2023/03/11 07:02:04;;;;;;;3.38;1.60;;;-1.30;99.90;;;;;;5092652;27;20548;-79
2023/03/11 07:04:31;;;;;;;6.72;0.68;;;-1.30;99.90;;;;;;5109699;27;20104;-79
2023/03/11 07:06:57;;;;;;;10.02;0.70;;;-1.10;99.90;;;;;;5093574;27;20035;-79
2023/03/11 07:09:24;;;;;;;6.57;1.27;;;-1.10;99.90;;;;;;5092471;27;20576;-79
2023/03/11 07:11:51;;;;;;;4.00;0.88;;;-1.10;99.90;;;;;;5093777;27;20118;-80
2023/03/11 07:14:17;;;;;;;4.70;1.13;;;-1.00;99.90;;;;;;5109115;27;20046;-79
2023/03/11 07:16:44;;;;;;;5.97;1.02;;;-0.90;99.90;;;;;;5076493;27;20074;-79
2023/03/11 07:19:11;;;;;;;5.55;1.08;;;-1.20;99.90;;;;;;5075400;27;20130;-80
2023/03/11 07:21:37;;;;;;;9.07;0.90;;;-0.70;99.90;;;;;;5092663;27;20172;-80
2023/03/11 07:24:03;;;;;;;6.93;0.82;;;-0.60;99.90;;;;;;5109532;27;20075;-80
2023/03/11 07:26:30;;;;;;;2.35;0.60;;;-0.50;99.90;;;;;;5108940;27;20506;-79
2023/03/11 07:28:57;;;;;;;4.03;0.65;;;-0.40;99.90;;;;;;5093012;27;20043;-80
2023/03/11 07:31:28;;;;;;;4.07;0.70;;;-0.30;99.90;;;;;;5091765;27;20061;-80
2023/03/11 07:33:57;;;;;;;5.85;1.10;;;-0.20;99.90;;;;;;5093341;27;20055;-81
2023/03/11 07:36:24;;;;;;;2.13;0.98;;;0.10;99.90;;;;;;5108811;27;20043;-80
2023/03/11 07:38:58;;;;;;;4.18;0.70;;;-0.10;99.90;;;;;;5075185;27;20043;-80
2023/03/11 07:41:25;;;;;;;2.17;0.60;;;1.70;99.90;;;;;;5110015;27;20054;-81
2023/03/11 07:43:54;;;;;;;4.18;0.70;;;0.10;99.90;;;;;;5108505;27;20047;-81
2023/03/11 07:46:21;;;;;;;2.42;0.75;;;0.20;99.90;;;;;;5092901;27;20043;-81
2023/03/11 07:48:49;;;;;;;4.38;0.98;;;0.70;99.90;;;;;;5108804;27;20047;-81
2023/03/11 07:51:17;;;;;;;3.63;0.80;;;0.40;99.90;;;;;;5109342;27;20473;-82
2023/03/11 07:53:43;;;;;;;2.67;0.90;;;1.80;99.90;;;;;;5092638;27;20102;-79
2023/03/11 07:56:11;;;;;;;4.57;0.80;;;0.60;99.90;;;;;;5091402;27;20072;-80
2023/03/11 07:58:37;;;;;;;4.50;0.70;;;0.70;99.90;;;;;;5092298;27;20133;-82
2023/03/11 08:01:06;;;;;;;5.65;0.70;;;0.80;99.90;;;;;;5108167;27;20078;-80
2023/03/11 08:03:33;;;;;;;5.95;0.73;;;1.90;99.90;;;;;;5109271;27;20135;-81
2023/03/11 08:05:59;;;;;;;4.30;0.60;;;1.80;99.90;;;;;;5090767;27;20043;-80
2023/03/11 08:08:24;;;;;;;6.45;0.70;;;1.10;99.90;;;;;;5109100;27;20038;-82
2023/03/11 08:10:50;;;;;;;9.20;0.75;;;1.50;99.90;;;;;;5074547;27;20047;-80
2023/03/11 08:13:16;;;;;;;3.63;0.60;;;1.30;99.90;;;;;;5074322;27;20031;-80
2023/03/11 08:15:42;;;;;;;2.35;0.57;;;1.40;99.90;;;;;;5108565;27;20423;-80
2023/03/11 08:18:08;;;;;;;5.40;0.80;;;1.50;99.90;;;;;;5073519;27;20043;-79
2023/03/11 08:20:36;;;;;;;4.18;0.60;;;1.60;99.90;;;;;;5075090;27;20085;-83
2023/03/11 08:23:02;;;;;;;14.90;0.88;;;3.10;99.90;;;;;;5090265;27;20631;-82
2023/03/11 08:25:28;;;;;;;4.85;1.20;;;1.80;99.90;;;;;;5091642;27;20134;-81
2023/03/11 08:27:54;;;;;;;3.83;0.80;;;2.30;99.90;;;;;;5091087;27;20102;-81
2023/03/11 08:30:20;;;;;;;3.30;1.00;;;2.00;99.90;;;;;;5107943;27;20043;-81
2023/03/11 08:32:48;;;;;;;10.13;1.85;;;2.10;99.90;;;;;;5109348;27;20156;-87
2023/03/11 08:35:14;;;;;;;4.68;0.70;;;2.20;99.90;;;;;;5107046;27;20394;-80
2023/03/11 08:37:39;;;;;;;6.88;1.00;;;2.20;99.90;;;;;;5092295;27;20462;-80
2023/03/11 08:40:08;;;;;;;10.13;1.05;;;2.30;99.90;;;;;;5090739;27;20135;-80
2023/03/11 08:42:34;;;;;;;6.80;1.10;;;2.40;99.90;;;;;;5108474;27;20043;-82
2023/03/11 08:44:59;;;;;;;5.07;0.50;;;2.50;99.90;;;;;;5108081;27;20089;-82
2023/03/11 08:47:25;;;;;;;7.82;0.63;;;3.70;99.90;;;;;;5090683;27;20070;-81
2023/03/11 08:49:51;;;;;;;5.72;0.80;;;2.60;99.90;;;;;;5091470;27;20039;-81
2023/03/11 08:52:16;;;;;;;9.52;0.90;;;2.70;99.90;;;;;;5107964;27;20102;-81
2023/03/11 08:54:42;;;;;;;5.05;1.00;;;2.80;99.90;;;;;;5109159;27;20044;-80
2023/03/11 08:57:08;;;;;;;3.88;0.90;;;2.80;99.90;;;;;;5107069;27;20051;-81
2023/03/11 08:59:34;;;;;;;2.25;0.45;;;2.90;99.90;;;;;;5108534;27;20043;-84
2023/03/11 09:02:00;;;;;;;3.53;0.55;;;3.00;99.90;;;;;;5073747;27;20047;-81
2023/03/11 09:04:25;;;;;;;14.27;0.88;;;3.10;99.90;;;;;;5107351;27;20096;-81
2023/03/11 09:06:51;;;;;;;4.75;0.60;;;3.10;99.90;;;;;;5091031;27;20043;-81
2023/03/11 09:09:20;;;;;;;4.63;0.80;;;3.20;99.90;;;;;;5125929;27;20082;-81
2023/03/11 09:11:46;;;;;;;3.20;0.40;;;3.30;99.90;;;;;;5108248;27;20046;-81
2023/03/11 09:14:13;;;;;;;11.23;1.00;;;3.30;99.90;;;;;;5125499;27;20070;-81
2023/03/11 09:16:39;;;;;;;7.28;0.50;;;3.40;99.90;;;;;;5108304;27;20066;-82
2023/03/11 09:19:06;;;;;;;4.22;0.63;;;5.00;99.90;;;;;;5090137;27;20065;-83
2023/03/11 09:21:36;;;;;;;4.68;0.80;;;4.70;99.90;;;;;;5107303;27;20054;-82
2023/03/11 09:24:03;;;;;;;6.72;0.70;;;4.10;99.90;;;;;;5107655;27;20053;-85
2023/03/11 09:26:29;;;;;;;10.45;0.68;;;3.60;99.90;;;;;;5107148;27;20390;-83
2023/03/11 09:28:55;;;;;;;6.50;0.63;;;4.30;99.90;;;;;;5108391;27;20078;-86
2023/03/11 09:31:21;;;;;;;4.03;0.68;;;3.70;99.90;;;;;;5089457;27;20555;-82
2023/03/11 09:33:46;;;;;;;4.50;0.90;;;3.80;99.90;;;;;;5091373;27;20043;-83
2023/03/11 09:36:17;;;;;;;6.20;0.73;;;3.80;99.90;;;;;;5073340;28;20074;-84
2023/03/11 09:38:43;;;;;;;4.18;0.70;;;3.50;99.90;;;;;;5089966;28;20470;-84
2023/03/11 09:41:24;;;;;;;6.63;0.75;;;3.90;99.90;;;;;;5073706;28;20046;-80
2023/03/11 09:44:18;;;;;;;7.22;0.60;;;4.00;99.90;;;;;;5106666;28;20507;-82
2023/03/11 09:47:09;;;;;;;6.40;1.02;;;4.10;99.90;;;;;;5107270;27;20532;-81
2023/03/11 09:49:40;;;;;;;7.50;1.02;;;4.10;99.90;;;;;;5090263;28;20111;-82
2023/03/11 09:52:13;;;;;;;7.60;0.65;;;4.20;99.90;;;;;;5089981;28;20440;-86
2023/03/11 09:54:47;;;;;;;5.55;1.15;;;4.30;99.90;;;;;;5091761;28;20111;-89
2023/03/11 09:57:18;;;;;;;;;;;5.80;99.90;;;;;;5107176;28;20071;-82
2023/03/11 09:59:45;;;;;;;11.05;0.70;;;4.40;99.90;;;;;;5107348;28;20433;-83
2023/03/11 10:02:16;;;;;;;2.50;0.40;;;4.90;99.90;;;;;;5072863;28;20039;-80
2023/03/11 10:04:52;;;;;;;8.45;1.13;;;4.50;99.90;;;;;;5089487;28;20047;-81
2023/03/11 10:07:24;;;;;;;3.47;0.45;;;4.60;99.90;;;;;;5107594;28;20164;-80
2023/03/11 10:09:56;;;;;;;17.52;2.45;;;5.90;99.90;;;;;;5088795;28;20039;-81
2023/03/11 10:12:45;;;;;;;4.70;0.75;;;5.00;99.90;;;;;;5107926;28;20514;-82
2023/03/11 10:15:36;;;;;;;10.20;0.93;;;4.80;99.90;;;;;;5107185;28;20107;-81
2023/03/11 10:18:29;;;;;;;7.38;1.00;;;4.80;99.90;;;;;;5090469;28;20482;-80
2023/03/11 10:21:04;;;;;;;7.80;0.93;;;4.90;99.90;;;;;;5108470;28;20064;-81
2023/03/11 10:24:03;;;;;;;9.70;1.02;;;5.00;99.90;;;;;;5107470;28;20066;-79
2023/03/11 10:26:47;;;;;;;6.65;0.52;;;5.00;99.90;;;;;;5106537;28;20484;-80
2023/03/11 10:29:17;;;;;;;8.25;0.80;;;5.10;99.90;;;;;;5091807;28;20082;-79
2023/03/11 10:31:47;;;;;;;5.38;0.73;;;5.10;99.90;;;;;;5105690;28;20043;-81
2023/03/11 10:34:21;;;;;;;15.50;1.30;;;5.20;99.90;;;;;;5089757;28;20117;-81
2023/03/11 10:36:57;;;;;;;4.88;0.73;;;6.30;99.90;;;;;;5107223;28;20102;-81
2023/03/11 10:39:24;;;;;;;9.02;0.80;;;5.20;99.90;;;;;;5106433;28;20035;-80
2023/03/11 10:41:56;;;;;;;1.98;0.43;;;6.20;99.90;;;;;;5107473;28;20100;-80
2023/03/11 10:44:33;;;;;;;9.20;1.03;;;5.30;99.90;;;;;;5089109;28;20092;-81
2023/03/11 10:46:59;;;;;;;2.90;0.45;;;5.30;99.90;;;;;;5106674;28;20483;-82
2023/03/11 10:49:25;;;;;;;5.68;0.95;;;5.40;99.90;;;;;;5106656;28;20051;-81
2023/03/11 10:51:52;;;;;;;6.40;0.80;;;5.70;99.90;;;;;;5106345;28;20050;-81
2023/03/11 10:54:31;;;;;;;5.55;0.70;;;5.60;99.90;;;;;;5074643;28;20049;-81
2023/03/11 10:57:04;;;;;;;4.18;0.60;;;5.70;99.90;;;;;;5091379;27;20047;-81
2023/03/11 10:59:33;;;;;;;4.75;0.80;;;5.80;99.90;;;;;;5096492;27;20551;-83
2023/03/11 11:02:02;;;;;;;9.77;0.68;;;6.10;99.90;;;;;;5111801;27;20641;-81
2023/03/11 11:04:36;;;;;;;3.90;0.80;;;6.00;99.90;;;;;;5109822;27;20087;-82
2023/03/11 11:07:40;;;;;;;5.70;0.70;;;5.80;99.90;;;;;;5093685;27;20039;-80
2023/03/11 11:10:12;;;;;;;3.90;0.77;;;6.00;99.90;;;;;;5109092;27;20047;-79
2023/03/11 11:13:01;;;;;;;2.40;0.70;;;6.70;99.90;;;;;;5093099;27;20398;-80
2023/03/11 11:15:31;;;;;;;4.68;0.75;;;6.10;99.90;;;;;;5093764;27;20545;-79
2023/03/11 11:18:18;;;;;;;4.65;0.85;;;7.20;99.90;;;;;;5092045;27;20097;-79
2023/03/11 11:21:00;;;;;;;9.32;0.73;;;6.10;99.90;;;;;;5110453;27;20035;-80
2023/03/11 11:23:32;;;;;;;4.22;0.60;;;6.20;99.90;;;;;;5092854;27;20401;-79
2023/03/11 11:26:03;;;;;;;3.25;0.40;;;6.30;99.90;;;;;;5110045;27;20066;-79
2023/03/11 11:28:31;;;;;;;8.77;0.75;;;6.40;99.90;;;;;;5110200;27;20114;-78
2023/03/11 11:31:03;;;;;;;7.20;0.52;;;6.40;99.90;;;;;;5108842;27;20457;-79
2023/03/11 11:33:48;;;;;;;5.55;0.73;;;6.50;99.90;;;;;;5110275;27;20062;-78
2023/03/11 11:36:15;;;;;;;2.78;0.75;;;6.60;99.90;;;;;;5109090;27;20046;-78
2023/03/11 11:38:41;;;;;;;2.63;1.02;;;6.70;99.90;;;;;;5109208;27;20062;-79
2023/03/11 11:41:13;;;;;;;7.75;1.00;;;6.70;99.90;;;;;;5109623;27;20047;-79
2023/03/11 11:43:48;;;;;;;1.35;0.60;;;6.80;99.90;;;;;;5091575;27;20031;-79
2023/03/11 11:46:39;;;;;;;4.28;0.70;;;6.80;99.90;;;;;;5109907;27;20047;-80
2023/03/11 11:49:13;;;;;;;3.58;0.77;;;6.80;99.90;;;;;;5109486;27;20115;-79
2023/03/11 11:52:06;;;;;;;7.55;0.73;;;6.90;99.90;;;;;;5108660;27;20039;-81
2023/03/11 11:54:41;;;;;;;6.40;0.40;;;6.90;99.90;;;;;;5092720;27;20499;-79
2023/03/11 11:57:15;;;;;;;4.32;0.60;;;6.90;99.90;;;;;;5108166;27;20513;-80
2023/03/11 11:59:42;;;;;;;4.80;0.68;;;6.90;99.90;;;;;;5092504;27;20084;-81
2023/03/11 12:02:18;;;;;;;5.82;0.60;;;7.80;99.90;;;;;;5091665;27;20574;-82
2023/03/11 12:05:16;;;;;;;6.80;0.75;;;7.20;99.90;;;;;;5108552;27;20043;-79
2023/03/11 12:07:59;;;;;;;5.38;0.60;;;6.80;99.90;;;;;;5107369;27;20051;-79
2023/03/11 12:10:32;;;;;;;6.00;0.77;;;6.80;99.90;;;;;;5108448;27;20082;-79
2023/03/11 12:13:19;;;;;;;2.78;0.60;;;6.90;99.90;;;;;;5108500;27;20470;-79
2023/03/11 12:16:09;;;;;;;3.92;0.38;;;7.00;99.90;;;;;;5092915;27;20594;-79
2023/03/11 12:18:43;;;;;;;4.72;0.55;;;7.00;99.90;;;;;;5090717;27;20043;-79
2023/03/11 12:21:31;;;;;;;4.78;0.50;;;7.10;99.90;;;;;;5108468;27;20340;-79
2023/03/11 12:24:18;;;;;;;3.85;0.57;;;7.00;99.90;;;;;;5091888;27;20122;-79
2023/03/11 12:26:46;;;;;;;9.15;0.65;;;7.00;99.90;;;;;;5091169;27;20418;-79
2023/03/11 12:29:12;;;;;;;2.65;0.50;;;6.90;99.90;;;;;;5109220;27;20039;-78
2023/03/11 12:31:39;;;;;;;7.18;0.40;;;8.40;99.90;;;;;;5090474;27;20101;-80
2023/03/11 12:34:10;;;;;;;1.60;0.68;;;7.00;99.90;;;;;;5108211;27;20051;-80
2023/03/11 12:36:42;;;;;;;6.43;0.40;;;7.00;99.90;;;;;;5091642;27;20046;-79
2023/03/11 12:39:30;;;;;;;4.63;0.40;;;7.10;99.90;;;;;;5090664;27;20055;-79
2023/03/11 12:42:15;;;;;;;4.97;0.75;;;7.10;99.90;;;;;;5108961;27;20179;-79
2023/03/11 12:44:41;;;;;;;5.68;0.75;;;7.10;99.90;;;;;;5091243;27;20078;-79
2023/03/11 12:47:06;;;;;;;6.72;0.60;;;7.00;99.90;;;;;;5090900;27;20097;-80
2023/03/11 12:49:45;;;;;;;3.45;0.60;;;7.00;99.90;;;;;;5108880;27;20043;-79
2023/03/11 12:52:10;;;;;;;5.50;0.57;;;7.50;99.90;;;;;;5106969;27;20086;-80
2023/03/11 12:54:44;;;;;;;3.15;0.40;;;7.60;99.90;;;;;;5109021;27;20484;-79
2023/03/11 12:57:19;;;;;;;4.05;0.50;;;8.30;99.90;;;;;;5107487;27;20047;-79
2023/03/11 12:59:47;;;;;;;7.72;0.75;;;7.00;99.90;;;;;;5090976;27;20097;-78
2023/03/11 13:02:42;;;;;;;3.03;0.30;;;7.20;99.90;;;;;;5107935;27;20067;-79
2023/03/11 13:05:46;;;;;;;3.03;0.50;;;7.20;99.90;;;;;;5089927;27;20055;-79